createdAt,value
2018-04-13T00:00:14.824Z,51.37
2018-04-13T00:02:49.322Z,48.90
2018-04-13T00:05:22.846Z,50.30
2018-04-13T00:07:56.410Z,51.23
2018-04-13T00:10:30.910Z,50.17
2018-04-13T00:13:04.673Z,49.97
2018-04-13T00:15:38.192Z,52.77
2018-04-13T00:18:11.730Z,51.40
2018-04-13T00:20:45.739Z,51.43
2018-04-13T00:23:19.396Z,52.83
2018-04-13T00:25:53.259Z,52.40
2018-04-13T00:28:26.905Z,53.40
2018-04-13T00:31:01.103Z,53.10
2018-04-13T00:33:35.179Z,51.40
2018-04-13T00:36:08.822Z,52.67
2018-04-13T00:38:42.366Z,54.47
2018-04-13T00:41:16.070Z,50.50
2018-04-13T00:43:49.927Z,54.00
2018-04-13T00:46:23.460Z,53.23
2018-04-13T00:48:57.114Z,51.97
2018-04-13T00:51:30.910Z,52.70
2018-04-13T00:54:04.711Z,50.87
2018-04-13T00:56:39.078Z,51.67
2018-04-13T00:59:12.665Z,49.67
2018-04-13T01:01:46.334Z,50.27
2018-04-13T01:04:20.146Z,48.20
2018-04-13T01:06:53.942Z,50.43
2018-04-13T01:09:27.512Z,49.43
2018-04-13T01:12:01.225Z,46.07
2018-04-13T01:14:35.104Z,49.10
2018-04-13T01:17:08.751Z,48.00
2018-04-13T01:19:42.405Z,45.93
2018-04-13T01:22:16.202Z,46.27
2018-04-13T01:24:49.806Z,44.93
2018-04-13T01:27:23.463Z,45.37
2018-04-13T01:29:57.146Z,44.20
2018-04-13T01:32:30.836Z,43.60
2018-04-13T01:35:04.351Z,44.00
2018-04-13T01:37:38.002Z,44.00
2018-04-13T01:40:11.774Z,42.67
2018-04-13T01:42:45.434Z,43.53
2018-04-13T01:45:19.263Z,44.53
2018-04-13T01:47:53.016Z,41.03
2018-04-13T01:50:26.711Z,44.63
2018-04-13T01:53:01.302Z,40.93
2018-04-13T01:55:34.963Z,42.03
2018-04-13T01:58:08.535Z,41.27
2018-04-13T02:00:42.326Z,41.90
2018-04-13T02:03:16.040Z,41.37
2018-04-13T02:05:50.103Z,43.13
2018-04-13T02:08:24.579Z,41.27
2018-04-13T02:10:58.293Z,42.40
2018-04-13T02:13:31.968Z,41.37
2018-04-13T02:16:05.608Z,42.97
2018-04-13T02:18:39.321Z,42.07
2018-04-13T02:21:13.069Z,43.30
2018-04-13T02:23:46.630Z,42.30
2018-04-13T02:26:20.166Z,38.17
2018-04-13T02:28:53.812Z,40.37
2018-04-13T02:31:27.630Z,39.53
2018-04-13T02:34:01.183Z,39.67
2018-04-13T02:36:34.750Z,38.40
2018-04-13T02:39:08.712Z,40.40
2018-04-13T02:41:42.361Z,40.03
2018-04-13T02:44:16.115Z,37.87
2018-04-13T02:46:49.810Z,35.90
2018-04-13T02:49:23.366Z,34.33
2018-04-13T02:51:57.902Z,35.47
2018-04-13T02:54:31.432Z,32.83
2018-04-13T02:57:05.161Z,33.90
2018-04-13T02:59:39.665Z,30.93
2018-04-13T03:02:13.277Z,31.00
2018-04-13T03:04:47.011Z,30.17
2018-04-13T03:07:20.546Z,30.63
2018-04-13T03:09:54.167Z,31.17
2018-04-13T03:12:27.767Z,29.17
2018-04-13T03:15:01.906Z,31.33
2018-04-13T03:17:35.784Z,31.27
2018-04-13T03:20:09.421Z,29.03
2018-04-13T03:22:42.933Z,30.67
2018-04-13T03:25:16.430Z,29.20
2018-04-13T03:27:49.971Z,29.13
2018-04-13T03:30:24.375Z,31.20
2018-04-13T03:32:58.103Z,28.47
2018-04-13T03:35:32.183Z,30.20
2018-04-13T03:38:05.875Z,28.90
2018-04-13T03:40:39.719Z,29.63
2018-04-13T03:43:14.114Z,28.97
2018-04-13T03:45:48.505Z,28.60
2018-04-13T03:48:22.268Z,26.70
2018-04-13T03:50:56.704Z,28.27
2018-04-13T03:53:30.343Z,26.10
2018-04-13T03:56:04.039Z,26.13
2018-04-13T03:58:37.599Z,23.90
2018-04-13T04:01:11.071Z,24.73
2018-04-13T04:03:44.565Z,19.87
2018-04-13T04:08:58.161Z,21.40
2018-04-13T04:11:31.965Z,21.50
2018-04-13T04:14:05.509Z,20.20
2018-04-13T04:16:39.407Z,20.70
2018-04-13T04:19:12.937Z,23.40
2018-04-13T04:21:58.251Z,21.63
2018-04-13T04:24:43.891Z,23.57
2018-04-13T04:27:17.619Z,23.03
2018-04-13T04:29:51.118Z,21.97
2018-04-13T04:32:24.642Z,24.27
2018-04-13T04:34:58.213Z,22.33
2018-04-13T04:37:31.740Z,23.63
2018-04-13T04:40:06.162Z,24.07
2018-04-13T04:42:39.751Z,23.23
2018-04-13T04:45:13.421Z,23.63
2018-04-13T04:47:47.178Z,24.80
2018-04-13T04:50:20.893Z,24.87
2018-04-13T04:52:54.463Z,25.90
2018-04-13T04:55:27.990Z,24.97
2018-04-13T04:58:01.863Z,26.20
2018-04-13T05:00:35.498Z,27.80
2018-04-13T05:03:09.015Z,28.93
2018-04-13T05:05:42.572Z,26.70
2018-04-13T05:08:16.372Z,23.80
2018-04-13T05:10:50.052Z,24.57
2018-04-13T05:13:23.818Z,23.00
2018-04-13T05:15:57.772Z,22.03
2018-04-13T05:18:31.400Z,19.97
2018-04-13T05:21:04.985Z,19.97
2018-04-13T05:23:38.614Z,18.70
2018-04-13T05:26:12.491Z,16.90
2018-04-13T05:28:46.555Z,17.17
2018-04-13T05:31:20.183Z,16.43
2018-04-13T05:33:53.875Z,17.90
2018-04-13T05:36:27.431Z,15.47
2018-04-13T05:39:01.277Z,17.23
2018-04-13T05:41:34.889Z,16.50
2018-04-13T05:44:08.502Z,15.33
2018-04-13T05:46:42.291Z,16.27
2018-04-13T05:49:15.827Z,16.97
2018-04-13T05:51:49.514Z,17.03
2018-04-13T05:54:23.502Z,17.20
2018-04-13T05:56:57.153Z,17.63
2018-04-13T05:59:31.834Z,16.93
2018-04-13T06:02:05.451Z,16.50
2018-04-13T06:04:39.003Z,16.30
2018-04-13T06:07:12.520Z,15.40
2018-04-13T06:09:46.169Z,16.23
2018-04-13T06:12:19.722Z,14.23
2018-04-13T06:14:53.450Z,15.67
2018-04-13T06:17:27.071Z,15.57
2018-04-13T06:20:00.556Z,15.37
2018-04-13T06:22:34.096Z,15.50
2018-04-13T06:25:07.630Z,14.73
2018-04-13T06:27:41.156Z,16.37
2018-04-13T06:30:14.828Z,15.00
2018-04-13T06:32:48.553Z,15.10
2018-04-13T06:35:22.218Z,16.23
2018-04-13T06:37:57.618Z,15.77
2018-04-13T06:40:31.310Z,17.07
2018-04-13T06:43:04.939Z,16.37
2018-04-13T06:45:38.720Z,15.93
2018-04-13T06:48:12.260Z,16.60
2018-04-13T06:50:45.915Z,15.60
2018-04-13T06:53:19.824Z,16.70
2018-04-13T06:55:53.600Z,17.13
2018-04-13T06:58:27.414Z,18.17
2018-04-13T07:01:01.304Z,17.60
2018-04-13T07:03:34.833Z,17.17
2018-04-13T07:06:08.404Z,18.07
2018-04-13T07:08:42.163Z,17.30
2018-04-13T07:11:15.746Z,18.33
2018-04-13T07:13:49.495Z,18.90
2018-04-13T07:16:23.013Z,18.77
2018-04-13T07:18:56.719Z,19.87
2018-04-13T07:21:31.360Z,18.20
2018-04-13T07:24:05.627Z,19.43
2018-04-13T07:26:39.819Z,19.00
2018-04-13T07:29:14.731Z,17.70
2018-04-13T07:31:48.919Z,17.93
2018-04-13T07:34:23.237Z,18.57
2018-04-13T07:36:56.291Z,17.53
2018-04-13T07:39:29.875Z,19.13
2018-04-13T07:42:03.704Z,17.00
2018-04-13T07:44:37.255Z,18.17
2018-04-13T07:47:10.975Z,18.47
2018-04-13T07:49:44.733Z,17.63
2018-04-13T07:52:19.789Z,17.63
2018-04-13T07:54:52.914Z,17.53
2018-04-13T07:57:26.659Z,19.23
2018-04-13T08:00:00.266Z,18.60
2018-04-13T08:02:33.891Z,23.47
2018-04-13T08:05:07.610Z,24.03
2018-04-13T08:07:41.480Z,23.03
2018-04-13T08:10:15.307Z,23.30
2018-04-13T08:12:48.723Z,24.67
2018-04-13T08:15:22.240Z,24.33
2018-04-13T08:17:55.987Z,23.83
2018-04-13T08:20:29.559Z,22.50
2018-04-13T08:23:03.364Z,23.63
2018-04-13T08:25:36.922Z,23.23
2018-04-13T08:28:10.664Z,22.47
2018-04-13T08:30:44.165Z,25.47
2018-04-13T08:33:17.890Z,24.60
2018-04-13T08:35:51.662Z,25.47
2018-04-13T08:38:25.510Z,24.30
2018-04-13T08:40:59.312Z,26.07
2018-04-13T08:43:32.885Z,26.53
2018-04-13T08:46:07.690Z,26.47
2018-04-13T08:48:41.389Z,25.87
2018-04-13T08:51:15.103Z,28.03
2018-04-13T08:53:48.689Z,26.40
2018-04-13T08:56:22.264Z,28.53
2018-04-13T08:58:56.294Z,27.63
2018-04-13T09:01:30.064Z,26.63
2018-04-13T09:04:03.812Z,26.67
2018-04-13T09:06:37.717Z,28.70
2018-04-13T09:09:11.599Z,28.23
2018-04-13T09:11:45.168Z,28.10
2018-04-13T09:14:18.818Z,28.47
2018-04-13T09:16:52.708Z,28.60
2018-04-13T09:19:26.342Z,29.73
2018-04-13T09:21:59.858Z,29.27
2018-04-13T09:24:33.540Z,31.63
2018-04-13T09:27:08.157Z,32.13
2018-04-13T09:29:41.887Z,31.93
2018-04-13T09:32:15.455Z,33.70
2018-04-13T09:34:49.023Z,32.83
2018-04-13T09:37:22.542Z,32.77
2018-04-13T09:39:56.380Z,30.00
2018-04-13T09:42:29.938Z,29.13
2018-04-13T09:45:04.572Z,24.33
2018-04-13T09:47:39.476Z,25.70
2018-04-13T09:50:13.276Z,24.43
2018-04-13T09:52:46.795Z,25.10
2018-04-13T09:55:20.532Z,25.23
2018-04-13T09:57:54.074Z,25.63
2018-04-13T10:00:30.534Z,27.37
2018-04-13T10:03:09.735Z,27.07
2018-04-13T10:05:43.512Z,25.47
2018-04-13T10:08:17.173Z,26.07
2018-04-13T10:10:51.605Z,23.87
2018-04-13T10:13:25.130Z,27.20
2018-04-13T10:15:58.691Z,26.67
2018-04-13T10:18:33.235Z,29.57
2018-04-13T10:21:06.784Z,32.27
2018-04-13T10:23:41.611Z,30.53
2018-04-13T10:26:23.026Z,32.80
2018-04-13T10:28:56.644Z,33.23
2018-04-13T10:31:30.257Z,33.87
2018-04-13T10:34:03.986Z,31.67
2018-04-13T10:36:37.519Z,32.47
2018-04-13T10:39:11.086Z,30.87
2018-04-13T10:41:44.908Z,28.50
2018-04-13T10:44:18.686Z,27.33
2018-04-13T10:56:37.524Z,25.67
2018-04-13T10:59:11.322Z,24.97
2018-04-13T11:01:45.132Z,23.60
2018-04-13T11:04:18.664Z,23.30
2018-04-13T11:06:52.520Z,21.30
2018-04-13T11:09:26.225Z,20.53
2018-04-13T11:11:59.903Z,22.07
2018-04-13T11:14:33.664Z,21.13
2018-04-13T11:17:07.360Z,22.53
2018-04-13T11:19:41.050Z,19.70
2018-04-13T11:22:14.876Z,19.17
2018-04-13T11:24:48.610Z,20.13
2018-04-13T11:27:22.401Z,19.67
2018-04-13T11:29:56.037Z,21.73
2018-04-13T11:32:29.822Z,20.80
2018-04-13T11:35:03.550Z,20.87
2018-04-13T11:37:37.120Z,23.87
2018-04-13T11:40:10.764Z,23.87
2018-04-13T11:42:44.266Z,25.90
2018-04-13T11:45:18.024Z,27.53
2018-04-13T11:47:51.698Z,28.20
2018-04-13T11:50:25.361Z,28.03
2018-04-13T11:52:58.976Z,28.20
2018-04-13T11:55:32.644Z,29.47
2018-04-13T11:58:06.256Z,32.47
2018-04-13T12:00:40.020Z,30.00
2018-04-13T12:03:14.190Z,32.00
2018-04-13T12:05:47.865Z,31.20
2018-04-13T12:08:21.590Z,29.30
2018-04-13T12:10:56.141Z,28.47
2018-04-13T12:13:30.566Z,28.27
2018-04-13T12:16:04.303Z,31.10
2018-04-13T12:18:37.863Z,29.80
2018-04-13T12:21:11.621Z,30.43
2018-04-13T12:23:45.242Z,28.20
2018-04-13T12:26:18.841Z,28.67
2018-04-13T12:28:52.426Z,29.60
2018-04-13T12:31:26.755Z,30.87
2018-04-13T12:34:00.775Z,31.43
2018-04-13T12:36:34.514Z,30.90
2018-04-13T12:39:09.217Z,30.40
2018-04-13T12:41:42.972Z,30.50
2018-04-13T12:44:16.596Z,31.87
2018-04-13T12:46:50.320Z,31.37
2018-04-13T12:49:24.797Z,28.97
2018-04-13T12:51:58.368Z,29.33
2018-04-13T12:54:32.376Z,29.70
2018-04-13T12:57:05.965Z,28.80
2018-04-13T12:59:40.091Z,27.90
2018-04-13T13:02:13.688Z,26.53
2018-04-13T13:04:47.352Z,25.43
2018-04-13T13:07:21.831Z,26.20
2018-04-13T13:09:55.486Z,25.13
2018-04-13T13:12:29.173Z,26.37
2018-04-13T13:15:02.983Z,25.20
2018-04-13T13:17:36.745Z,25.57
2018-04-13T13:20:11.529Z,24.43
2018-04-13T13:22:45.022Z,27.83
2018-04-13T13:25:19.431Z,24.37
2018-04-13T13:27:53.139Z,24.77
2018-04-13T13:30:27.458Z,25.70
2018-04-13T13:33:01.555Z,26.07
2018-04-13T13:35:35.188Z,24.57
2018-04-13T13:38:09.734Z,26.10
2018-04-13T13:40:43.351Z,26.63
2018-04-13T13:43:17.067Z,25.33
2018-04-13T13:45:50.740Z,24.40
2018-04-13T13:48:25.111Z,25.17
2018-04-13T13:50:58.796Z,24.97
2018-04-13T13:53:32.402Z,23.20
2018-04-13T13:56:06.998Z,25.40
2018-04-13T13:58:40.525Z,24.57
2018-04-13T14:01:14.494Z,24.37
2018-04-13T14:16:49.649Z,25.00
2018-04-13T14:19:23.322Z,23.87
2018-04-13T14:21:57.282Z,26.07
2018-04-13T14:24:30.938Z,25.17
2018-04-13T14:27:04.838Z,25.03
2018-04-13T14:29:38.470Z,24.43
2018-04-13T14:32:12.851Z,24.17
2018-04-13T14:34:47.343Z,24.43
2018-04-13T14:37:21.926Z,26.30
2018-04-13T14:39:55.533Z,25.00
2018-04-13T14:42:29.253Z,24.97
2018-04-13T14:54:53.715Z,23.83
2018-04-13T14:57:27.628Z,25.07
2018-04-13T15:00:01.335Z,26.23
2018-04-13T15:02:35.164Z,26.70
2018-04-13T15:05:08.804Z,24.93
2018-04-13T15:07:42.446Z,24.77
2018-04-13T15:10:16.238Z,25.73
2018-04-13T15:12:49.991Z,24.97
2018-04-13T15:15:23.558Z,25.00
2018-04-13T15:17:57.501Z,25.10
2018-04-13T15:20:31.082Z,26.10
2018-04-13T15:23:04.644Z,25.70
2018-04-13T15:25:38.575Z,25.83
2018-04-13T15:28:12.295Z,24.47
2018-04-13T15:30:45.864Z,25.93
2018-04-13T15:33:19.595Z,24.07
2018-04-13T15:35:53.173Z,24.40
2018-04-13T15:38:27.246Z,25.17
2018-04-13T15:41:01.157Z,24.93
2018-04-13T15:43:34.744Z,25.37
2018-04-13T15:46:09.362Z,24.93
2018-04-13T15:48:43.964Z,23.97
2018-04-13T15:51:17.746Z,24.97
2018-04-13T15:53:51.275Z,27.27
2018-04-13T15:56:24.827Z,26.33
2018-04-13T15:58:59.269Z,24.40
2018-04-13T16:01:32.979Z,26.03
2018-04-13T16:04:06.625Z,25.97
2018-04-13T16:06:40.206Z,25.63
2018-04-13T16:09:13.923Z,25.57
2018-04-13T16:11:47.455Z,25.80
2018-04-13T16:14:21.026Z,24.20
2018-04-13T16:16:54.578Z,25.20
2018-04-13T16:19:29.203Z,23.33
2018-04-13T16:22:02.850Z,24.27
2018-04-13T16:24:36.529Z,25.93
2018-04-13T16:27:11.240Z,26.87
2018-04-13T16:29:45.271Z,25.97
2018-04-13T16:32:19.651Z,23.53
2018-04-13T16:34:53.688Z,25.03
2018-04-13T16:37:27.359Z,25.43
2018-04-13T16:40:00.913Z,24.70
2018-04-13T16:42:34.810Z,23.97
2018-04-13T16:45:08.452Z,24.37
2018-04-13T16:47:42.004Z,24.37
2018-04-13T16:50:16.575Z,24.40
2018-04-13T16:52:50.243Z,25.30
2018-04-13T16:55:24.919Z,24.37
2018-04-13T16:57:58.511Z,25.17
2018-04-13T17:00:32.206Z,24.57
2018-04-13T17:03:05.756Z,24.23
2018-04-13T17:05:39.561Z,23.83
2018-04-13T17:08:14.802Z,23.87
2018-04-13T17:10:48.402Z,24.70
2018-04-13T17:13:21.945Z,22.90
2018-04-13T17:15:55.577Z,23.00
2018-04-13T17:18:29.201Z,23.13
2018-04-13T17:21:02.977Z,22.73
2018-04-13T17:23:36.667Z,22.63
2018-04-13T17:26:10.414Z,22.67
2018-04-13T17:28:44.060Z,21.90
2018-04-13T17:31:17.703Z,23.47
2018-04-13T17:33:52.015Z,21.70
2018-04-13T17:36:25.606Z,23.50
2018-04-13T17:38:59.140Z,24.73
2018-04-13T17:41:34.398Z,24.27
2018-04-13T17:44:08.935Z,24.03
2018-04-13T17:46:42.592Z,23.03
2018-04-13T17:49:16.164Z,24.27
2018-04-13T17:51:49.987Z,25.43
2018-04-13T17:54:23.785Z,23.97
2018-04-13T17:56:57.540Z,24.77
2018-04-13T17:59:31.173Z,22.80
2018-04-13T18:15:04.943Z,23.50
2018-04-13T18:17:38.631Z,25.93
2018-04-13T18:20:12.131Z,25.83
2018-04-13T18:22:45.893Z,24.93
2018-04-13T18:25:19.452Z,25.20
2018-04-13T18:27:53.167Z,24.93
2018-04-13T18:30:27.907Z,24.77
2018-04-13T18:33:01.646Z,23.83
2018-04-13T18:35:35.510Z,24.47
2018-04-13T18:38:09.209Z,22.87
2018-04-13T18:40:43.505Z,23.07
2018-04-13T18:43:17.155Z,23.07
2018-04-13T18:45:51.226Z,23.93
2018-04-13T18:48:24.780Z,25.03
2018-04-13T18:50:58.354Z,24.37
2018-04-13T18:53:31.993Z,24.73
2018-04-13T18:56:05.613Z,25.77
2018-04-13T18:58:39.278Z,22.57
2018-04-13T19:01:12.858Z,23.50
2018-04-13T19:03:46.479Z,24.67
2018-04-13T19:06:20.002Z,24.50
2018-04-13T19:08:53.639Z,24.17
2018-04-13T19:11:27.125Z,24.37
2018-04-13T19:14:00.795Z,22.83
2018-04-13T19:16:34.419Z,22.00
2018-04-13T19:19:08.063Z,23.00
2018-04-13T19:21:41.629Z,21.57
2018-04-13T19:24:15.285Z,24.37
2018-04-13T19:26:48.840Z,22.23
2018-04-13T19:29:22.371Z,21.97
2018-04-13T19:31:57.356Z,23.03
2018-04-13T19:34:31.087Z,23.63
2018-04-13T19:37:04.687Z,25.60
2018-04-13T19:39:38.239Z,24.97
2018-04-13T19:42:12.740Z,24.40
2018-04-13T19:44:46.580Z,25.80
2018-04-13T19:47:21.203Z,25.77
2018-04-13T19:49:54.872Z,27.37
2018-04-13T19:52:29.334Z,25.17
2018-04-13T19:55:03.006Z,24.13
2018-04-13T19:57:36.834Z,24.90
2018-04-13T20:00:10.506Z,25.97
2018-04-13T20:02:44.672Z,26.00
2018-04-13T20:05:18.379Z,25.20
2018-04-13T20:07:52.382Z,26.43
2018-04-13T20:10:26.030Z,25.40
2018-04-13T20:12:59.540Z,25.07
2018-04-13T20:15:33.259Z,26.30
2018-04-13T20:18:07.539Z,23.50
2018-04-13T20:20:41.416Z,25.23
2018-04-13T20:23:15.117Z,26.50
2018-04-13T20:25:49.780Z,24.43
2018-04-13T20:28:23.379Z,24.07
2018-04-13T20:30:57.875Z,22.93
2018-04-13T20:33:31.563Z,23.60
2018-04-13T20:36:05.470Z,25.93
2018-04-13T20:38:39.104Z,25.43
2018-04-13T20:41:12.639Z,26.30
2018-04-13T20:43:46.376Z,24.33
2018-04-13T20:46:20.935Z,24.90
2018-04-13T20:48:54.655Z,25.83
2018-04-13T20:51:28.229Z,24.90
2018-04-13T20:54:01.919Z,26.40
2018-04-13T20:56:36.126Z,26.43
2018-04-13T20:59:09.712Z,27.23
2018-04-13T21:01:43.427Z,25.40
2018-04-13T21:04:17.300Z,26.37
2018-04-13T21:19:52.846Z,22.47
2018-04-13T21:22:27.951Z,23.67
2018-04-13T21:25:01.548Z,23.07
2018-04-13T21:27:35.263Z,23.07
2018-04-13T21:30:09.193Z,23.23
2018-04-13T21:32:42.795Z,23.43
2018-04-13T21:35:16.541Z,23.97
2018-04-13T21:37:51.066Z,21.93
2018-04-13T21:40:24.800Z,23.07
2018-04-13T21:42:58.343Z,22.30
2018-04-13T21:55:17.078Z,21.40
2018-04-13T21:57:50.825Z,23.70
2018-04-13T22:00:24.371Z,23.00
2018-04-13T22:02:58.040Z,22.13
2018-04-13T22:05:31.946Z,22.47
2018-04-13T22:08:06.247Z,22.00
2018-04-13T22:10:40.318Z,24.20
2018-04-13T22:13:33.119Z,22.63
2018-04-13T22:16:07.027Z,21.77
2018-04-13T22:18:40.491Z,23.80
2018-04-13T22:21:15.055Z,24.27
2018-04-13T22:23:48.732Z,25.60
2018-04-13T22:26:22.348Z,22.90
2018-04-13T22:28:55.995Z,24.67
2018-04-13T22:31:29.780Z,24.63
2018-04-13T22:34:03.577Z,24.10
2018-04-13T22:36:37.162Z,23.27
2018-04-13T22:39:11.702Z,24.00
2018-04-13T22:41:45.548Z,23.63
2018-04-13T22:44:19.980Z,21.77
2018-04-13T22:46:53.772Z,22.73
2018-04-13T22:49:27.311Z,23.47
2018-04-13T22:52:00.872Z,23.47
2018-04-13T22:54:35.135Z,24.30
2018-04-13T22:57:09.008Z,23.40
2018-04-13T22:59:42.707Z,23.60
2018-04-13T23:02:16.355Z,25.43
2018-04-13T23:04:50.080Z,24.83
2018-04-13T23:07:23.880Z,25.23
2018-04-13T23:09:57.631Z,24.63
2018-04-13T23:12:31.181Z,25.03
2018-04-13T23:15:04.928Z,28.10
2018-04-13T23:17:38.447Z,26.03
2018-04-13T23:20:12.130Z,26.63
2018-04-13T23:22:45.682Z,28.03
2018-04-13T23:25:19.249Z,27.67
2018-04-13T23:27:52.761Z,29.20
2018-04-13T23:30:26.315Z,28.27
2018-04-13T23:32:59.945Z,28.70
2018-04-13T23:35:33.481Z,29.53
2018-04-13T23:38:08.305Z,28.47
2018-04-13T23:40:41.901Z,27.40
2018-04-13T23:43:15.435Z,29.10
2018-04-13T23:45:49.097Z,29.07
2018-04-13T23:48:22.822Z,30.13
2018-04-13T23:50:56.569Z,31.07
2018-04-13T23:53:30.188Z,31.43
2018-04-13T23:56:05.031Z,31.43
2018-04-13T23:58:38.624Z,31.07
